Time;durP1;ratioP1;P1;durP2;ratioP2;P2;SDS_P1;SDS_P2;PMS_P1;PMS_P2;Temp;Humidity;BMP_temperature;BMP_pressure;BME280_temperature;BME280_humidity;BME280_pressure;Samples;Min_cycle;Max_cycle;Signal;HPM_P1;HPM_P2
2023/03/21 00:00:10;;;;;;;;;;;;;;;20.35;55.20;100988.25;2258509;78;50030;-73
2023/03/21 00:03:11;;;;;;;;;;;;;;;20.34;55.13;100989.25;2280195;78;51599;-71
2023/03/21 00:06:13;;;;;;;;;;;;;;;20.32;55.16;100992.63;2282812;78;50753;-74
2023/03/21 00:09:15;;;;;;;;;;;;;;;20.29;55.10;100985.77;2236560;78;52342;-73
2023/03/21 00:12:19;;;;;;;;;;;;;;;20.29;55.22;100988.98;2280585;77;50769;-74
2023/03/21 00:15:19;;;;;;;;;;;;;;;20.33;55.30;100983.56;2258709;78;22306;-74
2023/03/21 00:18:21;;;;;;;;;;;;;;;20.35;55.28;100984.22;2259474;78;50281;-73
2023/03/21 00:21:31;;;;;;;;;;;;;;;20.35;55.30;100982.36;2236340;78;51104;-78
2023/03/21 00:24:32;;;;;;;;;;;;;;;20.37;55.26;100980.33;2285902;76;50668;-71
2023/03/21 00:27:34;;;;;;;;;;;;;;;20.36;55.19;100977.81;2295523;77;50057;-71
2023/03/21 00:30:36;;;;;;;;;;;;;;;20.34;55.26;100978.50;2317210;77;51623;-73
2023/03/21 00:33:40;;;;;;;;;;;;;;;20.33;55.27;100975.50;2271692;77;51263;-72
2023/03/21 00:36:42;;;;;;;;;;;;;;;20.31;55.30;100972.98;2316897;77;50175;-72
2023/03/21 00:39:47;;;;;;;;;;;;;;;20.29;55.22;100971.51;2314433;76;51384;-72
2023/03/21 00:42:46;;;;;;;;;;;;;;;20.32;55.31;100973.33;2315374;76;23005;-74
2023/03/21 00:45:49;;;;;;;;;;;;;;;20.38;55.27;100972.57;2270184;77;51306;-73
2023/03/21 00:48:50;;;;;;;;;;;;;;;20.40;55.28;100969.70;2269479;77;52491;-73
2023/03/21 00:51:52;;;;;;;;;;;;;;;20.39;55.19;100962.13;2294602;77;51568;-73
2023/03/21 00:54:54;;;;;;;;;;;;;;;20.40;55.19;100957.61;2287751;76;50723;-73
2023/03/21 00:57:55;;;;;;;;;;;;;;;20.38;55.18;100965.02;2260115;78;49529;-73
2023/03/21 01:00:57;;;;;;;;;;;;;;;20.37;55.23;100964.68;2281423;78;50752;-72
2023/03/21 01:04:04;;;;;;;;;;;;;;;20.34;55.24;100963.20;2260203;76;51392;-72
2023/03/21 01:07:05;;;;;;;;;;;;;;;20.32;55.17;100955.86;2281686;78;22261;-72
2023/03/21 01:10:07;;;;;;;;;;;;;;;20.32;55.15;100960.38;2281529;78;50279;-72
2023/03/21 01:13:09;;;;;;;;;;;;;;;20.35;55.25;100957.34;2281294;76;51528;-72
2023/03/21 01:16:10;;;;;;;;;;;;;;;20.37;55.29;100955.28;2281467;78;50776;-72
2023/03/21 01:19:13;;;;;;;;;;;;;;;20.38;55.38;100959.65;2281408;78;51510;-72
2023/03/21 01:22:14;;;;;;;;;;;;;;;20.39;55.38;100953.23;2260197;78;49652;-72
2023/03/21 01:25:16;;;;;;;;;;;;;;;20.37;55.40;100956.13;2297573;77;51514;-72
2023/03/21 01:28:18;;;;;;;;;;;;;;;20.37;55.37;100962.00;2314015;77;50035;-73
2023/03/21 01:31:19;;;;;;;;;;;;;;;20.34;55.36;100952.45;2313987;76;50229;-72
2023/03/21 01:34:21;;;;;;;;;;;;;;;20.33;55.38;100949.97;2268636;77;49665;-73
2023/03/21 01:37:25;;;;;;;;;;;;;;;20.32;55.25;100949.63;2313897;77;51636;-72
2023/03/21 01:40:26;;;;;;;;;;;;;;;20.33;55.41;100949.45;2266647;77;22341;-72
2023/03/21 01:43:32;;;;;;;;;;;;;;;20.38;55.38;100956.45;2223196;79;51486;-72
2023/03/21 01:46:45;;;;;;;;;;;;;;;20.39;55.45;100952.72;2199833;79;52535;-75
2023/03/21 01:49:47;;;;;;;;;;;;;;;20.41;55.45;100951.20;2244449;79;25327;-73
2023/03/21 01:52:51;;;;;;;;;;;;;;;20.39;55.36;100950.03;2248639;77;51587;-73
2023/03/21 01:55:53;;;;;;;;;;;;;;;20.39;55.38;100950.55;2313795;77;51570;-73
2023/03/21 01:58:56;;;;;;;;;;;;;;;20.37;55.39;100949.42;2294350;77;50964;-73
2023/03/21 02:01:58;;;;;;;;;;;;;;;20.34;55.51;100952.45;2313919;76;51582;-73
2023/03/21 02:05:01;;;;;;;;;;;;;;;20.34;55.41;100946.25;2313558;77;50295;-75
2023/03/21 02:08:02;;;;;;;;;;;;;;;20.33;55.39;100944.59;2313777;77;50801;-73
2023/03/21 02:11:04;;;;;;;;;;;;;;;20.36;55.48;100941.02;2294590;76;51438;-73
2023/03/21 02:14:05;;;;;;;;;;;;;;;20.39;55.41;100942.49;2313926;77;50723;-73
2023/03/21 02:17:15;;;;;;;;;;;;;;;20.39;55.37;100947.35;2314016;76;50263;-75
2023/03/21 02:20:20;;;;;;;;;;;;;;;20.39;55.42;100947.35;2294398;77;51240;-73
2023/03/21 02:23:35;;;;;;;;;;;;;;;20.38;55.39;100944.87;2311107;76;22293;-73
2023/03/21 02:26:38;;;;;;;;;;;;;;;20.37;55.37;100949.42;2282064;76;50259;-73
2023/03/21 02:29:42;;;;;;;;;;;;;;;20.35;55.39;100943.39;2281457;78;50314;-74
2023/03/21 02:33:01;;;;;;;;;;;;;;;20.34;55.36;100943.56;2280894;76;50843;-74
2023/03/21 02:36:21;;;;;;;;;;;;;;;20.31;55.28;100933.20;2281364;78;50567;-72
2023/03/21 02:39:25;;;;;;;;;;;;;;;20.29;55.37;100938.74;2281374;78;51600;-72
2023/03/21 02:42:31;;;;;;;;;;;;;;;20.30;55.37;100938.26;2281463;78;51602;-73
2023/03/21 02:45:35;;;;;;;;;;;;;;;20.29;55.33;100933.37;2280937;76;51499;-73
2023/03/21 02:48:41;;;;;;;;;;;;;;;20.27;55.41;100935.44;2283545;78;50913;-72
2023/03/21 02:51:42;;;;;;;;;;;;;;;20.27;55.35;100937.27;2281362;78;50220;-71
2023/03/21 02:54:44;;;;;;;;;;;;;;;20.26;55.33;100936.95;2276758;78;51379;-72
2023/03/21 02:57:46;;;;;;;;;;;;;;;20.25;55.21;100939.33;2279632;78;51619;-73
2023/03/21 03:00:48;;;;;;;;;;;;;;;20.21;55.08;100942.36;2258017;78;51719;-75
2023/03/21 03:03:50;;;;;;;;;;;;;;;20.20;55.09;100938.02;2279404;78;50391;-73
2023/03/21 03:07:00;;;;;;;;;;;;;;;20.22;55.35;100942.70;2257835;78;50707;-72
2023/03/21 03:10:18;;;;;;;;;;;;;;;20.31;55.35;100935.88;2279602;78;51547;-73
2023/03/21 03:13:27;;;;;;;;;;;;;;;20.39;55.20;100941.14;2257218;78;52452;-73
2023/03/21 03:16:43;;;;;;;;;;;;;;;20.40;55.12;100934.77;2279064;78;50664;-73
2023/03/21 03:23:11;;;;;;;;;;;;;;;20.40;55.06;100935.59;2280694;76;22359;-74
2023/03/21 03:26:19;;;;;;;;;;;;;;;20.39;55.07;100940.62;2231909;78;52732;-73
2023/03/21 03:29:21;;;;;;;;;;;;;;;20.38;55.05;100945.70;2276534;78;50859;-72
2023/03/21 03:32:25;;;;;;;;;;;;;;;20.35;55.08;100938.02;2276534;78;51405;-73
2023/03/21 03:35:27;;;;;;;;;;;;;;;20.34;55.06;100943.56;2276056;77;50038;-73
2023/03/21 03:38:29;;;;;;;;;;;;;;;20.32;55.12;100938.39;2251197;78;49613;-74
2023/03/21 03:41:31;;;;;;;;;;;;;;;20.31;55.15;100943.42;2276520;78;51404;-75
2023/03/21 03:44:33;;;;;;;;;;;;;;;20.30;55.19;100947.66;2276402;78;50219;-72
2023/03/21 03:47:39;;;;;;;;;;;;;;;20.28;55.18;100950.53;2276582;78;50760;-72
2023/03/21 03:50:42;;;;;;;;;;;;;;;20.28;55.15;100944.33;2251208;78;49617;-72
2023/03/21 03:53:45;;;;;;;;;;;;;;;20.26;55.03;100953.91;2276282;78;51610;-74
2023/03/21 03:56:47;;;;;;;;;;;;;;;20.25;55.00;100954.11;2260428;77;51488;-72
2023/03/21 03:59:48;;;;;;;;;;;;;;;20.22;55.07;100949.42;2291422;76;51514;-73
2023/03/21 04:02:50;;;;;;;;;;;;;;;20.20;54.88;100951.97;2317843;76;50986;-72
2023/03/21 04:05:52;;;;;;;;;;;;;;;20.25;55.21;100944.70;2294834;76;50422;-73
2023/03/21 04:08:55;;;;;;;;;;;;;;;20.30;55.19;100949.84;2337401;76;51497;-73
2023/03/21 04:11:57;;;;;;;;;;;;;;;20.33;55.16;100942.73;2318131;76;50296;-75
2023/03/21 04:14:58;;;;;;;;;;;;;;;20.33;55.14;100938.70;2317638;76;50435;-73
2023/03/21 04:18:00;;;;;;;;;;;;;;;20.34;55.11;100938.19;2318628;76;50624;-73
2023/03/21 04:21:02;;;;;;;;;;;;;;;20.33;55.04;100940.05;2347410;76;50379;-73
2023/03/21 04:24:04;;;;;;;;;;;;;;;20.32;55.01;100936.19;2317691;76;51529;-74
2023/03/21 04:27:06;;;;;;;;;;;;;;;20.30;54.99;100938.26;2292119;76;50095;-72
2023/03/21 04:30:08;;;;;;;;;;;;;;;20.27;55.00;100938.61;2347428;74;50717;-72
2023/03/21 04:33:10;;;;;;;;;;;;;;;20.24;54.86;100934.44;2317741;76;51510;-72
2023/03/21 04:36:23;;;;;;;;;;;;;;;20.29;55.03;100940.61;2317510;76;51424;-72
2023/03/21 04:39:15;;;;;;;;;;;;;;;20.33;54.91;100933.33;2345191;76;22320;-75
2023/03/21 04:42:19;;;;;;;;;;;;;;;20.35;54.85;100946.08;2347355;74;51522;-73
2023/03/21 04:45:21;;;;;;;;;;;;;;;20.34;54.83;100933.64;2347119;76;50265;-74
2023/03/21 04:48:23;;;;;;;;;;;;;;;20.35;54.84;100937.19;2347366;75;50652;-73
2023/03/21 04:51:25;;;;;;;;;;;;;;;20.35;54.89;100942.56;2317718;76;49652;-73
2023/03/21 04:54:26;;;;;;;;;;;;;;;20.32;54.87;100937.54;2317779;76;51453;-74
2023/03/21 04:57:28;;;;;;;;;;;;;;;20.30;55.00;100944.98;2318045;76;51478;-73
2023/03/21 05:00:30;;;;;;;;;;;;;;;20.28;54.95;100938.95;2347466;76;51522;-73
2023/03/21 05:03:39;;;;;;;;;;;;;;;20.29;54.86;100945.98;2318051;76;50672;-72
2023/03/21 05:06:35;;;;;;;;;;;;;;;20.33;54.94;100950.80;2286365;77;22779;-73
2023/03/21 05:09:37;;;;;;;;;;;;;;;20.37;54.90;100944.53;2345799;76;50255;-73
2023/03/21 05:12:39;;;;;;;;;;;;;;;20.39;54.94;100949.20;2347464;75;51359;-73
2023/03/21 05:15:40;;;;;;;;;;;;;;;20.41;54.92;100940.45;2317578;76;49865;-72
2023/03/21 05:18:42;;;;;;;;;;;;;;;20.40;54.90;100934.77;2317747;76;50637;-73
2023/03/21 05:21:43;;;;;;;;;;;;;;;20.38;54.83;100941.66;2347290;74;51599;-71
2023/03/21 05:24:49;;;;;;;;;;;;;;;20.38;54.76;100936.80;2347299;76;50417;-73
2023/03/21 05:27:53;;;;;;;;;;;;;;;20.36;54.69;100939.67;2317620;76;51208;-74
2023/03/21 05:30:53;;;;;;;;;;;;;;;20.33;54.64;100936.02;2349994;75;22983;-73
2023/03/21 05:33:55;;;;;;;;;;;;;;;20.32;54.62;100934.84;2353571;75;51417;-74
2023/03/21 05:36:57;;;;;;;;;;;;;;;20.31;54.57;100938.57;2293254;76;51613;-73
2023/03/21 05:39:59;;;;;;;;;;;;;;;20.30;54.55;100941.77;2256119;77;50186;-73
2023/03/21 05:43:00;;;;;;;;;;;;;;;20.29;54.49;100945.98;2311844;77;50389;-73
2023/03/21 05:46:02;;;;;;;;;;;;;;;20.28;54.47;100937.61;2311830;77;50720;-73
2023/03/21 05:49:04;;;;;;;;;;;;;;;20.27;54.38;100937.27;2310992;77;51535;-71
2023/03/21 05:52:05;;;;;;;;;;;;;;;20.25;54.40;100942.02;2249741;77;49581;-73
2023/03/21 05:55:07;;;;;;;;;;;;;;;20.21;54.46;100943.71;2305515;76;50598;-73
2023/03/21 05:58:09;;;;;;;;;;;;;;;20.16;54.52;100943.95;2330352;75;50225;-73
2023/03/21 06:01:10;;;;;;;;;;;;;;;20.12;54.71;100938.13;2353633;75;51582;-73
2023/03/21 06:04:12;;;;;;;;;;;;;;;20.22;54.69;100945.39;2292512;75;49606;-73
2023/03/21 06:07:14;;;;;;;;;;;;;;;20.32;54.43;100950.48;2286746;76;50085;-73
2023/03/21 06:10:15;;;;;;;;;;;;;;;20.34;54.51;100942.22;2347647;75;50050;-73
2023/03/21 06:13:17;;;;;;;;;;;;;;;20.36;54.45;100946.91;2347305;74;51370;-72
2023/03/21 06:16:18;;;;;;;;;;;;;;;20.36;54.46;100944.22;2286626;75;52487;-74
2023/03/21 06:19:20;;;;;;;;;;;;;;;20.36;54.52;100953.62;2274435;77;50261;-73
2023/03/21 06:22:22;;;;;;;;;;;;;;;20.33;54.59;100947.28;2305839;77;51499;-74
2023/03/21 06:25:24;;;;;;;;;;;;;;;20.32;54.65;100951.83;2305653;77;51547;-72
2023/03/21 06:28:25;;;;;;;;;;;;;;;20.31;54.70;100957.38;2249725;77;50136;-72
2023/03/21 06:31:27;;;;;;;;;;;;;;;20.29;54.78;100955.39;2305618;76;50428;-74
2023/03/21 06:34:29;;;;;;;;;;;;;;;20.27;54.79;100954.25;2277458;75;50624;-73
2023/03/21 06:37:31;;;;;;;;;;;;;;;20.26;54.85;100950.39;2335929;75;50706;-75
2023/03/21 06:40:33;;;;;;;;;;;;;;;20.22;55.20;100953.97;2291994;76;49612;-73
2023/03/21 06:43:34;;;;;;;;;;;;;;;20.19;55.08;100955.18;2347390;75;50509;-72
2023/03/21 06:46:36;;;;;;;;;;;;;;;20.19;55.10;100954.32;2348118;74;50226;-74
2023/03/21 06:49:37;;;;;;;;;;;;;;;;;;2347444;75;51578;-75
2023/03/21 06:52:39;;;;;;;;;;;;;;;20.16;55.10;100958.21;2317933;76;51151;-72
2023/03/21 06:55:40;;;;;;;;;;;;;;;20.10;55.37;100958.97;2347235;76;50504;-74
2023/03/21 06:58:42;;;;;;;;;;;;;;;20.12;55.38;100964.16;2347700;74;50330;-72
2023/03/21 07:01:43;;;;;;;;;;;;;;;;;;2313428;75;51478;-73
2023/03/21 07:04:44;;;;;;;;;;;;;;;20.22;55.11;100959.34;2307650;76;50306;-72
2023/03/21 07:07:47;;;;;;;;;;;;;;;20.20;55.10;100962.72;2295884;77;51222;-72
2023/03/21 07:10:49;;;;;;;;;;;;;;;20.19;55.05;100960.55;2290692;75;51585;-71
2023/03/21 07:13:50;;;;;;;;;;;;;;;20.18;55.02;100962.89;2305672;76;50666;-73
2023/03/21 07:16:52;;;;;;;;;;;;;;;20.18;55.03;100965.58;2305925;75;51547;-73
2023/03/21 07:19:54;;;;;;;;;;;;;;;20.15;55.10;100961.93;2306191;75;52593;-73
2023/03/21 07:22:55;;;;;;;;;;;;;;;20.08;55.33;100964.20;2275588;77;51466;-73
2023/03/21 07:25:57;;;;;;;;;;;;;;;20.11;55.42;100971.37;2276172;77;50728;-75
2023/03/21 07:28:59;;;;;;;;;;;;;;;20.21;55.22;100969.23;2308234;77;50769;-73
2023/03/21 07:32:00;;;;;;;;;;;;;;;20.30;54.94;100965.96;2275160;77;50064;-73
2023/03/21 07:35:02;;;;;;;;;;;;;;;20.30;54.87;100971.33;2324565;75;51384;-72
2023/03/21 07:38:04;;;;;;;;;;;;;;;20.29;54.86;100968.30;2304480;75;50717;-73
2023/03/21 07:41:06;;;;;;;;;;;;;;;20.28;54.87;100964.48;2282568;77;51741;-75
2023/03/21 07:44:07;;;;;;;;;;;;;;;20.27;54.83;100968.16;2256012;77;51219;-73
2023/03/21 07:47:09;;;;;;;;;;;;;;;20.26;54.82;100978.60;2312133;77;50596;-73
2023/03/21 07:50:10;;;;;;;;;;;;;;;20.23;54.82;100973.09;2281499;77;51854;-73
2023/03/21 07:53:12;;;;;;;;;;;;;;;20.20;54.80;100972.95;2315502;77;50873;-74
2023/03/21 07:56:14;;;;;;;;;;;;;;;20.22;54.85;100974.95;2256773;77;51727;-73
2023/03/21 07:59:16;;;;;;;;;;;;;;;20.27;54.72;100979.78;2312180;77;51494;-72
2023/03/21 08:02:17;;;;;;;;;;;;;;;20.29;54.61;100970.16;2280656;77;51406;-72
2023/03/21 08:05:21;;;;;;;;;;;;;;;20.28;54.60;100969.34;2281368;77;50386;-74
2023/03/21 08:08:22;;;;;;;;;;;;;;;20.26;54.62;100967.86;2292156;77;52352;-73
2023/03/21 08:11:24;;;;;;;;;;;;;;;20.23;54.65;100969.06;2280844;77;51547;-73
2023/03/21 08:14:25;;;;;;;;;;;;;;;20.22;54.61;100963.38;2280488;77;50087;-73
2023/03/21 08:17:27;;;;;;;;;;;;;;;20.20;54.58;100963.55;2280716;77;50382;-73
2023/03/21 08:20:29;;;;;;;;;;;;;;;20.16;54.57;100958.73;2281117;77;50407;-73
2023/03/21 08:23:30;;;;;;;;;;;;;;;20.17;54.64;100969.30;2311748;76;50721;-73
2023/03/21 08:26:33;;;;;;;;;;;;;;;20.21;54.66;100970.58;2312026;77;51723;-72
2023/03/21 08:29:39;;;;;;;;;;;;;;;20.23;54.52;100968.55;2311927;77;51472;-71
2023/03/21 08:32:38;;;;;;;;;;;;;;;20.30;54.32;100970.51;2311569;76;22326;-72
2023/03/21 08:35:39;;;;;;;;;;;;;;;20.26;54.42;100967.86;2322212;76;50411;-73
2023/03/21 08:38:41;;;;;;;;;;;;;;;20.25;54.41;100969.72;2282494;76;50393;-73
2023/03/21 08:41:42;;;;;;;;;;;;;;;20.23;54.37;100976.61;2311820;77;50356;-72
2023/03/21 08:44:44;;;;;;;;;;;;;;;20.19;54.44;100978.50;2311661;77;50610;-73
2023/03/21 08:47:46;;;;;;;;;;;;;;;20.19;54.35;100971.30;2311895;77;50341;-73
2023/03/21 08:50:47;;;;;;;;;;;;;;;20.18;54.34;100972.30;2311851;77;50338;-73
2023/03/21 08:53:53;;;;;;;;;;;;;;;20.16;54.46;100964.92;2311932;77;51455;-72
2023/03/21 08:56:52;;;;;;;;;;;;;;;20.19;54.42;100965.06;2281746;77;22875;-72
2023/03/21 08:59:54;;;;;;;;;;;;;;;20.25;54.24;100964.86;2280715;77;50349;-72
2023/03/21 09:02:57;;;;;;;;;;;;;;;20.24;54.21;100974.75;2311800;77;51527;-73
2023/03/21 09:05:59;;;;;;;;;;;;;;;20.21;54.23;100970.58;2314666;76;50271;-73
2023/03/21 09:09:01;;;;;;;;;;;;;;;20.19;54.25;100977.16;2320894;74;50481;-73
2023/03/21 09:12:02;;;;;;;;;;;;;;;;;;2256706;77;50069;-73
2023/03/21 09:15:04;;;;;;;;;;;;;;;20.15;54.27;100974.53;2311894;77;51553;-72
2023/03/21 09:18:12;;;;;;;;;;;;;;;20.14;54.27;100975.53;2311928;77;51463;-72
2023/03/21 09:21:14;;;;;;;;;;;;;;;20.11;54.29;100972.70;2311865;76;51424;-73
2023/03/21 09:24:16;;;;;;;;;;;;;;;20.15;54.35;100970.51;2280752;77;51413;-73
2023/03/21 09:27:21;;;;;;;;;;;;;;;20.19;54.22;100972.64;2311841;77;51515;-73
2023/03/21 09:30:21;;;;;;;;;;;;;;;20.22;54.08;100974.95;2311902;76;23156;-74
2023/03/21 09:33:24;;;;;;;;;;;;;;;20.22;54.07;100969.58;2311650;77;50327;-73
2023/03/21 09:36:26;;;;;;;;;;;;;;;20.20;54.06;100972.95;2288739;76;50903;-74
2023/03/21 09:39:27;;;;;;;;;;;;;;;20.17;54.10;100966.61;2284520;76;50394;-73
2023/03/21 09:42:31;;;;;;;;;;;;;;;20.18;54.06;100965.58;2311724;77;51436;-73
2023/03/21 09:45:34;;;;;;;;;;;;;;;20.15;54.05;100968.64;2311551;75;50794;-73
2023/03/21 09:48:47;;;;;;;;;;;;;;;20.14;54.05;100964.79;2311827;77;50730;-72
2023/03/21 09:51:53;;;;;;;;;;;;;;;20.15;54.05;100968.64;2311819;77;50759;-74
2023/03/21 09:54:56;;;;;;;;;;;;;;;20.21;54.01;100968.41;2311618;77;50003;-73
2023/03/21 09:58:05;;;;;;;;;;;;;;;20.27;53.87;100960.11;2281113;77;51558;-73
2023/03/21 10:01:09;;;;;;;;;;;;;;;20.26;53.81;100961.97;2280546;77;51605;-72
2023/03/21 10:04:12;;;;;;;;;;;;;;;20.25;53.79;100963.00;2308264;76;50295;-73
2023/03/21 10:07:16;;;;;;;;;;;;;;;20.23;53.81;100964.52;2329002;76;50778;-73
2023/03/21 10:10:22;;;;;;;;;;;;;;;20.22;53.81;100960.17;2347088;75;23134;-72
2023/03/21 10:13:25;;;;;;;;;;;;;;;20.21;53.81;100949.59;2317224;76;51237;-73
2023/03/21 10:16:31;;;;;;;;;;;;;;;20.19;53.82;100943.58;2345248;76;50415;-73
2023/03/21 10:19:33;;;;;;;;;;;;;;;20.18;53.80;100945.95;2345815;76;50313;-72
2023/03/21 10:22:35;;;;;;;;;;;;;;;20.18;53.84;100949.46;2347145;75;50638;-74
2023/03/21 10:25:37;;;;;;;;;;;;;;;20.20;53.79;100943.40;2317322;76;50116;-71
2023/03/21 10:28:40;;;;;;;;;;;;;;;20.23;53.70;100937.64;2347152;75;50284;-72
2023/03/21 10:31:42;;;;;;;;;;;;;;;20.24;53.70;100935.78;2347394;75;50059;-73
2023/03/21 10:34:45;;;;;;;;;;;;;;;20.26;53.60;100940.98;2347028;74;50331;-72
2023/03/21 10:37:47;;;;;;;;;;;;;;;20.22;53.64;100931.96;2293124;77;51361;-72
2023/03/21 10:40:49;;;;;;;;;;;;;;;20.19;53.67;100925.63;2311985;77;50195;-72
2023/03/21 10:44:07;;;;;;;;;;;;;;;20.16;53.71;100927.83;2280710;77;50283;-73
2023/03/21 10:47:08;;;;;;;;;;;;;;;20.12;53.79;100927.38;2311982;77;51612;-74
2023/03/21 10:50:14;;;;;;;;;;;;;;;20.12;53.78;100919.33;2311996;77;51479;-73
2023/03/21 10:53:32;;;;;;;;;;;;;;;20.19;53.77;100918.05;2281135;77;51558;-73
2023/03/21 10:56:37;;;;;;;;;;;;;;;20.25;53.60;100916.48;2311978;77;51567;-72
2023/03/21 10:59:40;;;;;;;;;;;;;;;20.26;53.51;100920.31;2311934;77;52334;-74
2023/03/21 11:02:42;;;;;;;;;;;;;;;20.26;53.47;100915.45;2280680;77;52571;-72
2023/03/21 11:05:43;;;;;;;;;;;;;;;20.25;53.46;100913.80;2279004;77;53893;-73
2023/03/21 11:08:52;;;;;;;;;;;;;;;20.21;53.49;100918.19;2323698;74;50359;-73
2023/03/21 11:11:55;;;;;;;;;;;;;;;20.20;53.54;100915.70;2311901;77;50893;-74
2023/03/21 11:14:56;;;;;;;;;;;;;;;;;;2280777;77;50937;-73
2023/03/21 11:17:58;;;;;;;;;;;;;;;20.16;53.57;100917.91;2280717;77;52500;-72
2023/03/21 11:21:03;;;;;;;;;;;;;;;20.15;53.58;100910.89;2280425;77;50109;-72
2023/03/21 11:24:05;;;;;;;;;;;;;;;20.20;53.53;100908.47;2311660;76;50742;-73
2023/03/21 11:27:07;;;;;;;;;;;;;;;20.25;53.41;100908.43;2311983;77;50682;-73
2023/03/21 11:30:10;;;;;;;;;;;;;;;20.24;53.35;100907.57;2280681;77;52444;-72
2023/03/21 11:33:12;;;;;;;;;;;;;;;20.25;53.31;100903.88;2311145;76;51474;-73
2023/03/21 11:36:21;;;;;;;;;;;;;;;20.22;53.35;100893.00;2308315;77;50404;-73
2023/03/21 11:39:34;;;;;;;;;;;;;;;20.20;53.35;100892.34;2343406;76;50479;-72
2023/03/21 11:42:42;;;;;;;;;;;;;;;20.19;53.38;100896.07;2317946;76;50313;-73
2023/03/21 11:46:04;;;;;;;;;;;;;;;20.15;53.42;100885.88;2347166;75;51521;-72
2023/03/21 11:49:07;;;;;;;;;;;;;;;20.16;53.40;100887.02;2347556;75;50294;-73
2023/03/21 11:52:12;;;;;;;;;;;;;;;20.19;53.43;100888.49;2347284;75;51662;-73
2023/03/21 11:55:21;;;;;;;;;;;;;;;20.24;53.28;100876.67;2317487;76;51270;-73
2023/03/21 11:58:24;;;;;;;;;;;;;;;20.25;53.22;100875.67;2347531;75;50416;-73
2023/03/21 12:01:44;;;;;;;;;;;;;;;20.26;53.20;100879.18;2347221;75;49942;-72
2023/03/21 12:04:46;;;;;;;;;;;;;;;20.24;53.19;100865.92;2338019;75;50501;-73
2023/03/21 12:08:08;;;;;;;;;;;;;;;20.21;53.24;100864.96;2268484;77;52529;-72
2023/03/21 12:11:14;;;;;;;;;;;;;;;20.18;53.27;100862.66;2311997;77;51418;-73
2023/03/21 12:14:17;;;;;;;;;;;;;;;20.14;53.31;100854.64;2311693;77;51460;-72
2023/03/21 12:17:30;;;;;;;;;;;;;;;20.13;53.31;100856.50;2311814;77;51569;-73
2023/03/21 12:20:30;;;;;;;;;;;;;;;;;;2279179;77;51030;-73
2023/03/21 12:23:40;;;;;;;;;;;;;;;20.26;53.15;100852.31;2311756;77;50342;-73
2023/03/21 12:26:43;;;;;;;;;;;;;;;20.26;53.09;100845.08;2312026;75;51585;-74
2023/03/21 12:29:49;;;;;;;;;;;;;;;20.26;53.05;100844.25;2311894;77;50532;-73
2023/03/21 12:33:01;;;;;;;;;;;;;;;20.21;53.13;100840.27;2280545;77;49716;-73
2023/03/21 12:36:04;;;;;;;;;;;;;;;20.20;53.13;100840.47;2251782;74;52035;-72
2023/03/21 12:39:17;;;;;;;;;;;;;;;20.19;53.13;100834.27;2339606;76;51415;-73
2023/03/21 12:42:29;;;;;;;;;;;;;;;20.16;53.13;100833.28;2347506;74;50763;-74
2023/03/21 12:45:32;;;;;;;;;;;;;;;20.16;53.11;100829.25;2346299;76;50194;-73
2023/03/21 12:48:50;;;;;;;;;;;;;;;20.16;53.23;100817.68;2347396;74;51499;-73
2023/03/21 12:51:53;;;;;;;;;;;;;;;20.22;53.14;100816.42;2347345;75;51566;-73
2023/03/21 12:54:56;;;;;;;;;;;;;;;20.30;52.92;100814.65;2347289;74;51570;-72
2023/03/21 12:58:00;;;;;;;;;;;;;;;20.31;52.85;100813.61;2317690;76;49608;-73
2023/03/21 13:01:02;;;;;;;;;;;;;;;20.31;52.80;100808.23;2337144;76;51542;-73
2023/03/21 13:04:05;;;;;;;;;;;;;;;20.26;52.90;100806.63;2345899;75;50681;-72
2023/03/21 13:07:07;;;;;;;;;;;;;;;20.26;52.90;100805.29;2323699;76;50390;-72
2023/03/21 13:10:13;;;;;;;;;;;;;;;20.23;52.89;100795.75;2280434;77;51070;-72
2023/03/21 13:13:31;;;;;;;;;;;;;;;20.20;52.95;100790.25;2280458;77;50417;-73
2023/03/21 13:16:37;;;;;;;;;;;;;;;20.18;52.97;100791.47;2311830;77;51638;-74
2023/03/21 13:19:53;;;;;;;;;;;;;;;20.19;53.03;100787.25;2311410;76;51577;-74
2023/03/21 13:22:54;;;;;;;;;;;;;;;20.28;52.89;100784.44;2310285;77;50413;-73
2023/03/21 13:25:56;;;;;;;;;;;;;;;20.31;52.73;100778.68;2311732;77;51504;-73
2023/03/21 13:28:58;;;;;;;;;;;;;;;20.31;52.69;100774.13;2311752;77;51496;-72
2023/03/21 13:32:01;;;;;;;;;;;;;;;20.30;52.68;100769.80;2311919;77;51588;-74
2023/03/21 13:35:05;;;;;;;;;;;;;;;20.28;52.69;100771.01;2276383;77;51032;-73
2023/03/21 13:38:11;;;;;;;;;;;;;;;20.25;52.75;100768.70;2322428;76;50542;-73
2023/03/21 13:41:13;;;;;;;;;;;;;;;20.20;52.82;100760.70;2303383;76;22241;-72
2023/03/21 13:44:14;;;;;;;;;;;;;;;;;;2310559;75;51496;-72
2023/03/21 13:47:23;;;;;;;;;;;;;;;20.17;52.85;100766.45;2311935;77;50246;-72
2023/03/21 13:50:36;;;;;;;;;;;;;;;20.23;52.87;100757.62;2280487;77;51836;-73
2023/03/21 13:53:39;;;;;;;;;;;;;;;20.30;52.68;100756.88;2311574;77;51480;-73
2023/03/21 13:56:52;;;;;;;;;;;;;;;20.33;52.55;100756.48;2311938;77;50417;-72
2023/03/21 13:59:53;;;;;;;;;;;;;;;20.30;52.56;100755.53;2310914;77;22387;-72
2023/03/21 14:03:02;;;;;;;;;;;;;;;20.28;52.60;100754.36;2255794;77;51925;-73
2023/03/21 14:06:04;;;;;;;;;;;;;;;20.25;52.65;100754.76;2311874;76;50310;-73
2023/03/21 14:09:06;;;;;;;;;;;;;;;20.23;52.68;100754.11;2339479;76;52650;-72
2023/03/21 14:12:11;;;;;;;;;;;;;;;20.19;52.75;100748.78;2347401;74;50389;-73
2023/03/21 14:15:22;;;;;;;;;;;;;;;20.18;52.71;100749.30;2317262;76;50887;-73
2023/03/21 14:18:24;;;;;;;;;;;;;;;20.19;52.81;100747.44;2317859;76;50529;-73
2023/03/21 14:21:28;;;;;;;;;;;;;;;20.28;52.66;100746.82;2317770;76;49687;-73
2023/03/21 14:24:29;;;;;;;;;;;;;;;20.31;52.48;100745.91;2347107;76;50698;-73
2023/03/21 14:27:32;;;;;;;;;;;;;;;20.30;52.48;100741.58;2318086;76;52396;-72
2023/03/21 14:30:34;;;;;;;;;;;;;;;20.28;52.54;100732.87;2347304;75;49995;-74
2023/03/21 14:33:38;;;;;;;;;;;;;;;20.26;52.56;100732.22;2347020;76;51577;-72
2023/03/21 14:36:40;;;;;;;;;;;;;;;20.23;52.60;100732.09;2326368;75;51616;-73
2023/03/21 14:39:42;;;;;;;;;;;;;;;20.21;52.64;100723.91;2280925;77;50876;-72
2023/03/21 14:42:45;;;;;;;;;;;;;;;20.18;52.68;100726.47;2280900;77;51500;-72
2023/03/21 14:45:47;;;;;;;;;;;;;;;20.16;52.70;100716.42;2311615;76;50442;-73
2023/03/21 14:48:49;;;;;;;;;;;;;;;20.21;52.72;100711.30;2311705;77;51556;-72
2023/03/21 14:51:51;;;;;;;;;;;;;;;20.28;52.57;100710.55;2280881;77;52268;-73
2023/03/21 14:54:52;;;;;;;;;;;;;;;20.33;52.37;100708.11;2311786;77;50740;-73
2023/03/21 14:57:55;;;;;;;;;;;;;;;20.32;52.40;100703.75;2312128;76;50384;-74
2023/03/21 15:00:57;;;;;;;;;;;;;;;20.30;52.42;100699.10;2312152;77;51482;-73
2023/03/21 15:03:59;;;;;;;;;;;;;;;20.27;52.45;100703.49;2256401;77;49300;-74
2023/03/21 15:07:03;;;;;;;;;;;;;;;20.23;52.51;100694.48;2324436;76;51531;-73
2023/03/21 15:10:05;;;;;;;;;;;;;;;20.21;52.54;100688.46;2312585;76;22445;-74
2023/03/21 15:13:18;;;;;;;;;;;;;;;20.19;52.58;100682.96;2314029;77;50230;-75
2023/03/21 15:16:19;;;;;;;;;;;;;;;20.19;52.60;100681.13;2316555;77;51442;-73
2023/03/21 15:19:22;;;;;;;;;;;;;;;20.24;52.56;100676.50;2313231;77;50211;-73
2023/03/21 15:22:28;;;;;;;;;;;;;;;20.29;52.43;100681.30;2313652;77;50378;-73
2023/03/21 15:25:31;;;;;;;;;;;;;;;20.29;52.36;100677.27;2315876;75;50323;-74
2023/03/21 15:28:33;;;;;;;;;;;;;;;20.29;52.36;100673.23;2284979;77;50759;-73
2023/03/21 15:31:35;;;;;;;;;;;;;;;20.25;52.41;100672.80;2312966;77;50775;-73
2023/03/21 15:34:37;;;;;;;;;;;;;;;20.21;52.46;100671.00;2312620;77;50284;-73
2023/03/21 15:37:40;;;;;;;;;;;;;;;20.19;52.51;100673.07;2335614;76;51463;-73
2023/03/21 15:40:41;;;;;;;;;;;;;;;20.16;52.55;100665.38;2322288;76;51593;-73
2023/03/21 15:43:43;;;;;;;;;;;;;;;20.14;52.54;100665.24;2319879;76;50717;-73
2023/03/21 15:46:46;;;;;;;;;;;;;;;20.18;52.61;100670.56;2318690;76;51754;-72
2023/03/21 15:49:48;;;;;;;;;;;;;;;20.22;52.50;100659.77;2348064;74;50819;-74